createdAt,value
2019-06-27T00:01:00.570Z,68.44
2019-06-27T00:06:21.995Z,68.36
2019-06-27T00:11:43.903Z,68.02
2019-06-27T00:17:05.648Z,68.85
2019-06-27T00:22:27.306Z,68.58
2019-06-27T00:27:49.040Z,68.26
2019-06-27T00:33:10.771Z,68.68
2019-06-27T00:38:32.545Z,69.77
2019-06-27T00:43:54.193Z,70.85
2019-06-27T00:49:15.904Z,71.43
2019-06-27T00:54:37.330Z,72.11
2019-06-27T00:59:59.036Z,73.12
2019-06-27T01:05:21.137Z,72.55
2019-06-27T01:10:42.449Z,71.42
2019-06-27T01:16:04.326Z,72.00
2019-06-27T01:21:25.879Z,71.54
2019-06-27T01:26:47.627Z,67.51
2019-06-27T01:32:09.726Z,65.30
2019-06-27T01:37:31.470Z,66.11
2019-06-27T01:42:53.397Z,64.96
2019-06-27T01:48:14.802Z,66.21
2019-06-27T01:53:36.498Z,65.65
2019-06-27T01:58:58.151Z,65.43
2019-06-27T02:04:19.945Z,66.84
2019-06-27T02:09:41.583Z,70.06
2019-06-27T02:15:03.459Z,71.50
2019-06-27T02:20:25.021Z,72.59
2019-06-27T02:25:46.753Z,73.75
2019-06-27T02:31:08.200Z,73.01
2019-06-27T02:36:30.113Z,73.62
2019-06-27T02:41:51.440Z,73.70
2019-06-27T02:47:13.389Z,74.34
2019-06-27T02:52:35.091Z,74.85
2019-06-27T02:57:56.549Z,74.76
2019-06-27T03:03:18.737Z,74.17
2019-06-27T03:08:40.420Z,73.98
2019-06-27T03:14:02.310Z,74.05
2019-06-27T03:19:23.749Z,73.27
2019-06-27T03:24:45.337Z,73.00
2019-06-27T03:30:07.412Z,72.48
2019-06-27T03:35:29.060Z,72.17
2019-06-27T03:40:51.053Z,72.20
2019-06-27T03:46:12.763Z,72.42
2019-06-27T03:51:34.411Z,71.38
2019-06-27T03:56:56.084Z,71.17
2019-06-27T04:02:17.819Z,71.36
2019-06-27T04:07:39.519Z,68.67
2019-06-27T04:13:01.405Z,68.23
2019-06-27T04:18:23.208Z,68.52
2019-06-27T04:23:44.984Z,67.92
2019-06-27T04:29:06.435Z,67.81
2019-06-27T04:34:28.188Z,65.68
2019-06-27T04:39:49.728Z,65.28
2019-06-27T04:45:11.577Z,66.33
2019-06-27T04:50:33.074Z,62.31
2019-06-27T04:55:55.037Z,58.30
2019-06-27T05:01:16.927Z,56.98
2019-06-27T05:06:38.448Z,56.43
2019-06-27T05:12:00.140Z,56.19
2019-06-27T05:17:21.773Z,54.62
2019-06-27T05:22:43.237Z,53.68
2019-06-27T05:28:06.976Z,53.84
2019-06-27T05:33:28.673Z,55.21
2019-06-27T05:38:50.560Z,55.79
2019-06-27T05:44:12.363Z,56.41
2019-06-27T05:49:34.435Z,56.09
2019-06-27T05:54:56.112Z,55.55
2019-06-27T06:00:28.254Z,54.34
2019-06-27T06:05:41.427Z,54.63
2019-06-27T06:11:03.047Z,54.82
2019-06-27T06:16:24.441Z,55.86
2019-06-27T06:21:46.155Z,54.33
2019-06-27T06:27:07.341Z,54.58
2019-06-27T06:32:29.270Z,53.86
2019-06-27T06:37:51.261Z,54.16
2019-06-27T06:43:13.072Z,54.83
2019-06-27T06:48:34.769Z,54.07
2019-06-27T06:53:57.080Z,53.44
2019-06-27T06:59:18.288Z,53.19
2019-06-27T07:04:40.182Z,51.53
2019-06-27T07:10:02.351Z,51.86
2019-06-27T07:15:24.146Z,51.69
2019-06-27T07:20:46.037Z,52.24
2019-06-27T07:26:07.917Z,50.99
2019-06-27T07:31:29.667Z,50.02
2019-06-27T07:36:51.055Z,50.03
2019-06-27T07:42:12.877Z,50.44
2019-06-27T07:47:34.477Z,50.57
2019-06-27T07:52:56.039Z,50.65
2019-06-27T07:58:17.836Z,50.61
2019-06-27T08:03:39.237Z,50.74
2019-06-27T08:09:01.436Z,50.34
2019-06-27T08:14:23.554Z,49.21
2019-06-27T08:19:45.360Z,49.34
2019-06-27T08:25:07.103Z,49.98
2019-06-27T08:30:29.055Z,48.61
2019-06-27T08:35:50.890Z,48.56
2019-06-27T08:41:14.153Z,49.58
2019-06-27T08:46:36.129Z,49.26
2019-06-27T08:51:57.871Z,48.84
2019-06-27T08:57:19.482Z,48.65
2019-06-27T09:02:41.258Z,51.12
2019-06-27T09:08:02.900Z,48.37
2019-06-27T09:13:24.408Z,48.05
2019-06-27T09:18:45.998Z,48.34
2019-06-27T09:24:07.728Z,48.28
2019-06-27T09:29:29.583Z,48.56
2019-06-27T09:34:50.956Z,46.31
2019-06-27T09:40:12.872Z,47.40
2019-06-27T09:45:34.710Z,45.65
2019-06-27T09:50:56.352Z,44.01
2019-06-27T09:56:18.361Z,41.81
2019-06-27T10:01:39.847Z,44.40
2019-06-27T10:07:01.596Z,43.92
2019-06-27T10:12:22.954Z,45.84
2019-06-27T10:17:44.552Z,43.39
2019-06-27T10:23:06.397Z,43.76
2019-06-27T10:28:27.865Z,44.18
2019-06-27T10:33:49.506Z,45.87
2019-06-27T10:39:11.143Z,39.40
2019-06-27T10:44:32.732Z,42.63
2019-06-27T10:49:54.630Z,41.46
2019-06-27T10:55:16.771Z,41.89
2019-06-27T11:00:38.632Z,41.53
2019-06-27T11:06:00.060Z,35.78
2019-06-27T11:11:21.756Z,38.83
2019-06-27T11:16:44.160Z,39.56
2019-06-27T11:22:08.378Z,40.66
2019-06-27T11:27:30.094Z,40.82
2019-06-27T11:32:51.417Z,40.42
2019-06-27T11:38:13.237Z,40.78
2019-06-27T11:43:34.882Z,41.99
2019-06-27T11:48:56.640Z,41.74
2019-06-27T11:54:18.635Z,41.58
2019-06-27T11:59:40.171Z,40.44
2019-06-27T12:05:01.926Z,38.35
2019-06-27T12:10:23.761Z,39.87
2019-06-27T12:15:45.165Z,41.04
2019-06-27T12:21:06.929Z,41.37
2019-06-27T12:26:28.511Z,41.94
2019-06-27T12:31:51.679Z,42.02
2019-06-27T12:37:13.623Z,40.27
2019-06-27T12:42:35.522Z,38.81
2019-06-27T12:48:06.165Z,37.10
2019-06-27T12:53:20.774Z,35.64
2019-06-27T12:58:42.643Z,36.90
2019-06-27T13:04:04.301Z,36.25
2019-06-27T13:09:25.661Z,36.26
2019-06-27T13:14:47.298Z,34.99
2019-06-27T13:20:09.980Z,35.00
2019-06-27T13:25:34.160Z,36.30
2019-06-27T13:30:55.057Z,36.29
2019-06-27T13:36:16.557Z,35.12
2019-06-27T13:41:38.249Z,33.71
2019-06-27T13:46:59.717Z,35.24
2019-06-27T13:52:21.150Z,34.42
2019-06-27T13:57:42.796Z,34.88
2019-06-27T14:03:04.754Z,34.31
2019-06-27T14:08:26.758Z,33.99
2019-06-27T14:13:48.523Z,34.57
2019-06-27T14:19:10.249Z,35.20
2019-06-27T14:24:31.979Z,36.47
2019-06-27T14:29:56.499Z,34.00
2019-06-27T14:35:18.060Z,34.73
2019-06-27T14:40:39.694Z,34.86
2019-06-27T14:46:01.223Z,34.06
2019-06-27T14:51:22.459Z,34.16
2019-06-27T14:56:43.954Z,34.26
2019-06-27T15:02:06.105Z,33.60
2019-06-27T15:07:28.010Z,34.53
2019-06-27T15:12:57.171Z,34.65
2019-06-27T15:18:16.482Z,34.87
2019-06-27T15:23:36.202Z,35.35
2019-06-27T15:28:57.089Z,35.10
2019-06-27T15:34:18.986Z,35.57
2019-06-27T15:39:40.635Z,36.17
2019-06-27T15:45:02.455Z,36.69
2019-06-27T15:50:24.004Z,37.57
2019-06-27T15:55:45.742Z,37.20
2019-06-27T16:01:07.497Z,37.58
2019-06-27T16:06:29.837Z,37.34
2019-06-27T16:11:51.168Z,37.15
2019-06-27T16:17:12.958Z,37.99
2019-06-27T16:22:34.509Z,38.88
2019-06-27T16:27:56.362Z,38.38
2019-06-27T16:33:17.982Z,38.84
2019-06-27T16:38:40.250Z,38.48
2019-06-27T16:44:01.811Z,38.37
2019-06-27T16:49:23.424Z,38.15
2019-06-27T16:54:45.257Z,37.62
2019-06-27T17:00:07.194Z,38.01
2019-06-27T17:05:29.166Z,39.27
2019-06-27T17:10:50.603Z,41.55
2019-06-27T17:16:12.365Z,44.58
2019-06-27T17:21:34.312Z,47.23
2019-06-27T17:26:55.812Z,48.27
2019-06-27T17:32:17.289Z,49.43
2019-06-27T17:37:39.395Z,53.43
2019-06-27T17:43:01.225Z,55.24
2019-06-27T17:48:23.017Z,56.75
2019-06-27T17:53:44.775Z,57.62
2019-06-27T17:59:06.768Z,58.93
2019-06-27T18:04:28.253Z,60.47
2019-06-27T18:09:50.099Z,60.80
2019-06-27T18:15:12.093Z,62.17
2019-06-27T18:20:33.629Z,62.22
2019-06-27T18:25:55.615Z,62.89
2019-06-27T18:31:20.106Z,64.06
2019-06-27T18:36:41.645Z,64.40
2019-06-27T18:42:03.439Z,64.80
2019-06-27T18:47:25.243Z,65.52
2019-06-27T18:52:46.831Z,65.39
2019-06-27T18:58:08.555Z,64.73
2019-06-27T19:03:30.430Z,65.00
2019-06-27T19:08:52.290Z,64.83
2019-06-27T19:14:13.991Z,64.78
2019-06-27T19:19:43.479Z,65.19
2019-06-27T19:25:11.310Z,65.04
2019-06-27T19:30:32.751Z,66.04
2019-06-27T19:35:54.347Z,66.10
2019-06-27T19:41:16.062Z,66.02
2019-06-27T19:46:38.033Z,65.20
2019-06-27T19:51:59.460Z,66.76
2019-06-27T19:57:21.696Z,66.20
2019-06-27T20:02:43.278Z,66.12
2019-06-27T20:08:18.485Z,66.46
2019-06-27T20:13:28.351Z,66.78
2019-06-27T20:18:50.125Z,67.68
2019-06-27T20:24:12.000Z,68.27
2019-06-27T20:29:33.502Z,68.04
2019-06-27T20:34:55.237Z,68.40
2019-06-27T20:40:19.673Z,68.39
2019-06-27T20:45:41.203Z,68.18
2019-06-27T20:51:02.854Z,68.27
2019-06-27T20:56:24.465Z,69.28
2019-06-27T21:01:46.158Z,70.02
2019-06-27T21:07:10.937Z,71.26
2019-06-27T21:12:34.169Z,72.48
2019-06-27T21:17:56.265Z,72.67
2019-06-27T21:23:19.955Z,73.30
2019-06-27T21:28:41.988Z,72.93
2019-06-27T21:34:03.909Z,72.80
2019-06-27T21:39:25.219Z,72.52
2019-06-27T21:44:46.693Z,72.54
2019-06-27T21:50:08.663Z,72.73
2019-06-27T21:55:30.691Z,73.80
2019-06-27T22:00:53.064Z,74.45
2019-06-27T22:06:14.914Z,74.45
2019-06-27T22:11:36.740Z,74.66
2019-06-27T22:16:58.315Z,75.51
2019-06-27T22:22:20.035Z,75.79
2019-06-27T22:27:41.664Z,75.45
2019-06-27T22:33:03.599Z,75.66
2019-06-27T22:38:43.269Z,75.58
2019-06-27T22:44:23.413Z,75.36
2019-06-27T22:49:48.752Z,75.07
2019-06-27T22:55:15.382Z,74.81
2019-06-27T23:00:37.717Z,74.61
2019-06-27T23:06:00.686Z,74.82
2019-06-27T23:11:23.993Z,74.65
2019-06-27T23:16:45.860Z,74.74
2019-06-27T23:22:07.568Z,74.81
2019-06-27T23:27:29.428Z,74.74
2019-06-27T23:32:51.205Z,74.38
2019-06-27T23:38:12.373Z,74.52
2019-06-27T23:43:33.680Z,74.76
2019-06-27T23:48:54.983Z,75.35
2019-06-27T23:54:16.699Z,75.18
2019-06-27T23:59:38.587Z,75.56
